Buoy 41936

sailwx.info

Track history (hours):
 
Tides and Currents Weather Stations Pressure Air Temp Water Temp Dewpoint Dewpoint Depression Visibility Wind Speed Wind Dir Waves Ship Positions

Drifting buoy 41936

Last reported at 2016-Dec-03 07:00 UTC. Time now 2016-Dec-03 11:33 UTC.
Position N 38°13' W 039°46'.

Barometer 998.5 mb

Date/timePositionNaut miles runAvg speedWind from/ knotsBaromVisibWave heightAir tempDewpointWater temp
2016-Dec-03 07:00N 38°13' W 039°46'2 2.0 998.5
2016-Dec-03 06:00N 38°12' W 039°49'6 6.1 999.5
2016-Dec-03 05:00N 38°12' W 039°56'0 0.0 999.7
2016-Dec-03 01:00N 38°12' W 039°56'2 2.0 1002.3
2016-Dec-03 00:00N 38°13' W 039°59'0 0.0 1003.2
2016-Dec-02 23:00N 38°13' W 039°59'1 0.9 1004.4
2016-Dec-02 22:00N 38°13' W 040°00'1 0.8 1004.5
2016-Dec-02 21:00N 38°13' W 040°01'1 1.4 1004.8
2016-Dec-02 20:00N 38°13' W 040°02'0 0.5 1005.0
2016-Dec-02 19:00N 38°13' W 040°03'2 2.2 1005.2
2016-Dec-02 18:00N 38°14' W 040°05'2 2.2 1005.1
2016-Dec-02 17:00N 38°16' W 040°08'0 0.0 1004.9
2016-Dec-02 16:00N 38°16' W 040°08'0 0.0 1005.1
2016-Dec-02 15:00N 38°16' W 040°08'4 2.1 1005.7
2016-Dec-02 13:00N 38°17' W 040°13'5 4.9 1005.8
2016-Dec-02 12:00N 38°21' W 040°17'0 0.0 1006.5
2016-Dec-02 09:00N 38°21' W 040°17'2 1.9 1004.3
2016-Dec-02 08:00N 38°22' W 040°19'1313.4 1003.4
2016-Dec-02 07:00N 38°32' W 040°31'0 0.0 1003.1
2016-Dec-02 06:00N 38°32' W 040°31'0 0.0 1003.1
2016-Dec-02 01:00N 38°32' W 040°31'0 0.0 1002.1
2016-Dec-01 22:00N 38°32' W 040°31'43 4.8 1001.5
2016-Dec-01 13:00N 38°59' W 041°14'0 0.0 1002.3
2016-Nov-29 20:00N 38°59' W 041°14'11 1.1 1011.1
2016-Nov-29 10:00N 38°50' W 041°22'8 1.9 1016.2
2016-Nov-29 06:00N 38°44' W 041°29'8 7.8 1017.5
2016-Nov-29 05:00N 38°50' W 041°22'7 0.8 1017.8
2016-Nov-28 20:00N 38°44' W 041°29'1 1.4 1021.2
2016-Nov-28 19:00N 38°44' W 041°31'2 1.8 1021.2
2016-Nov-28 18:00N 38°43' W 041°32'0 0.0 1021.2
2016-Nov-28 17:00N 38°43' W 041°32'0 0.0 1020.9
2016-Nov-28 16:00N 38°43' W 041°32'2 1.8 1021.7
2016-Nov-28 15:00N 38°42' W 041°34'1 1.1 1021.7
2016-Nov-28 14:00N 38°41' W 041°35'2 0.8 1022.0
2016-Nov-28 12:00N 38°40' W 041°37'0 0.0 1023.1
2016-Nov-28 11:00N 38°40' W 041°37'1 0.9 1022.9
2016-Nov-28 10:00N 38°40' W 041°38'1 0.9 1023.1
2016-Nov-28 09:00N 38°40' W 041°39'1 1.2 1023.2
2016-Nov-28 08:00N 38°39' W 041°39'0 0.0 1023.0
2016-Nov-28 07:00N 38°39' W 041°39'0 0.5 1022.9
2016-Nov-28 06:00N 38°39' W 041°40'2 2.0 1023.2
2016-Nov-28 05:00N 38°40' W 041°42'0 0.0 1023.6
2016-Nov-28 01:00N 38°40' W 041°42'0 0.0 1024.0
2016-Nov-28 00:00N 38°40' W 041°42'1 0.9 1024.1
2016-Nov-27 23:00N 38°40' W 041°43'0 0.5 1024.0
2016-Nov-27 22:00N 38°40' W 041°44'1 0.8 1024.2
2016-Nov-27 21:00N 38°40' W 041°43'0 0.0 1023.6
2016-Nov-27 20:00N 38°40' W 041°43'1 1.1 1022.9
2016-Nov-27 19:00N 38°40' W 041°44'1 1.1 1022.7
2016-Nov-27 18:00N 38°40' W 041°43'0 0.0 1023.0
2016-Nov-27 17:00N 38°40' W 041°43'2 1.9 1022.2
2016-Nov-27 16:00N 38°42' W 041°43'0 0.2 1022.7
2016-Nov-27 13:00N 38°42' W 041°43'1 1.1 1023.2
2016-Nov-27 12:00N 38°43' W 041°44'0 0.0 1023.3
2016-Nov-27 09:00N 38°43' W 041°44'1 0.8 1021.3
2016-Nov-27 08:00N 38°43' W 041°45'1 0.8 1021.2
2016-Nov-27 07:00N 38°44' W 041°46'0 0.0 1020.9
2016-Nov-27 06:00N 38°44' W 041°46'2 2.4 1020.7
2016-Nov-27 05:00N 38°44' W 041°49'2 2.4 1020.4
2016-Nov-27 04:00N 38°44' W 041°46'3 0.8 1020.1
2016-Nov-27 00:00N 38°44' W 041°50'0 0.2 1020.1
2016-Nov-26 21:00N 38°44' W 041°49'1 0.9 1019.6
2016-Nov-26 20:00N 38°44' W 041°50'0 0.5 1018.9
2016-Nov-26 19:00N 38°44' W 041°50'2 1.5 1018.5
2016-Nov-26 18:00N 38°45' W 041°51'1 0.6 1018.4
2016-Nov-26 17:00N 38°44' W 041°51'0 0.0 1017.7
2016-Nov-26 16:00N 38°44' W 041°51'4 1.2 1018.2
2016-Nov-26 13:00N 38°47' W 041°55'3 2.8 1019.5
2016-Nov-26 12:00N 38°47' W 041°58'0 0.0 1019.7
2016-Nov-26 11:00N 38°47' W 041°58'3 1.4 1019.5
2016-Nov-26 09:00N 38°47' W 042°02'0 0.0 1017.9
2016-Nov-26 08:00N 38°47' W 042°02'1 1.4 1017.6
2016-Nov-26 07:00N 38°47' W 042°04'0 0.0 1017.5
2016-Nov-26 06:00N 38°47' W 042°04'4 4.2 1017.4
2016-Nov-26 05:00N 38°47' W 042°09'1 0.3 1017.7
2016-Nov-26 01:00N 38°48' W 042°10'1 1.1 1017.5
2016-Nov-26 00:00N 38°49' W 042°11'1 1.3 1017.4
2016-Nov-25 23:00N 38°50' W 042°12'0 0.0 1016.9
2016-Nov-25 22:00N 38°50' W 042°12'2 2.2 1016.6
2016-Nov-25 21:00N 38°51' W 042°14'0 0.0 1015.9
2016-Nov-25 20:00N 38°51' W 042°14'5 4.9 1015.6
2016-Nov-25 19:00N 38°55' W 042°19'0 0.0 1015.2
2016-Nov-25 18:00N 38°55' W 042°19'7 6.6 1014.1
2016-Nov-25 17:00N 39°01' W 042°22'7 6.6 1013.8
2016-Nov-25 16:00N 38°55' W 042°19'10 3.5 1013.4
2016-Nov-25 13:00N 39°04' W 042°25'0 0.5 1014.0
2016-Nov-25 12:00N 39°04' W 042°26'3 2.6 1013.6
2016-Nov-25 11:00N 39°06' W 042°27'2 1.5 1012.8
2016-Nov-25 10:00N 39°07' W 042°28'3 0.9 1012.4
2016-Nov-25 07:00N 39°10' W 042°30'3 3.3 1011.5
2016-Nov-25 06:00N 39°13' W 042°32'9 8.6 1011.4
2016-Nov-25 05:00N 39°20' W 042°38'1 0.1 1011.2
2016-Nov-25 00:00N 39°20' W 042°38'1 0.9 1009.5
2016-Nov-24 23:00N 39°20' W 042°39'2 2.4 1009.2
2016-Nov-24 22:00N 39°21' W 042°42'0 0.0 1009.2
2016-Nov-24 21:00N 39°21' W 042°42'1 1.1 1009.2
2016-Nov-24 20:00N 39°20' W 042°43'1 1.3 1009.3
2016-Nov-24 19:00N 39°19' W 042°44'0 0.0 1008.4
2016-Nov-24 18:00N 39°19' W 042°44'1 1.3 1009.8
2016-Nov-24 17:00N 39°18' W 042°44'0 0.0 1010.5
2016-Nov-24 16:00N 39°18' W 042°44'0 0.0 1011.9
2016-Nov-24 15:00N 39°18' W 042°44'1 0.6 1012.4
2016-Nov-24 14:00N 39°17' W 042°44'1 0.6 1013.3
2016-Nov-24 12:00N 39°16' W 042°44'1 0.8 1014.1
2016-Nov-24 11:00N 39°16' W 042°43'2 1.5 1014.5
2016-Nov-24 10:00N 39°15' W 042°45'1 0.8 1014.5
2016-Nov-24 09:00N 39°14' W 042°44'1 0.3 1014.9
2016-Nov-24 07:00N 39°14' W 042°44'1 0.8 1015.5
2016-Nov-24 06:00N 39°13' W 042°45'2 2.4 1015.8
2016-Nov-24 05:00N 39°13' W 042°48'6 1.2 1016.4
2016-Nov-24 00:00N 39°07' W 042°44'1 0.6 1018.4
2016-Nov-23 23:00N 39°07' W 042°44'0 0.0 1018.4
2016-Nov-23 22:00N 39°07' W 042°44'1 1.1 1019.0
2016-Nov-23 21:00N 39°06' W 042°43'1 0.6 1019.3
2016-Nov-23 20:00N 39°05' W 042°43'0 0.0 1019.4
2016-Nov-23 19:00N 39°05' W 042°43'1 1.1 1019.0
2016-Nov-23 18:00N 39°05' W 042°42'1 1.3 1019.6
2016-Nov-23 17:00N 39°04' W 042°41'0 0.0 1020.0
2016-Nov-23 16:00N 39°04' W 042°41'0 0.0 1020.1
2016-Nov-23 15:00N 39°04' W 042°41'3 3.3 1020.5
2016-Nov-23 14:00N 39°02' W 042°38'1 0.3 1021.0
2016-Nov-23 12:00N 39°02' W 042°38'0 0.5 1021.6
2016-Nov-23 11:00N 39°02' W 042°38'2 2.0 1021.6
2016-Nov-23 10:00N 39°01' W 042°37'1 1.1 1021.6
2016-Nov-23 09:00N 39°00' W 042°36'0 0.0 1021.5
2016-Nov-23 08:00N 39°00' W 042°36'   1021.9
Track history (hours):
 
Tides and Currents Weather Stations Pressure Air Temp Water Temp Dewpoint Dewpoint Depression Visibility Wind Speed Wind Dir Waves Ship Positions

Drifting buoy 41936

Last reported at 2016-Dec-03 07:00 UTC. Time now 2016-Dec-03 11:33 UTC.
Position N 38°13' W 039°46'.

Barometer 998.5 mb

Date/timePositionNaut miles runAvg speedWind from/ knotsBaromVisibWave heightAir tempDewpointWater temp
2016-Dec-03 07:00N 38°13' W 039°46'2 2.0 998.5
2016-Dec-03 06:00N 38°12' W 039°49'6 6.1 999.5
2016-Dec-03 05:00N 38°12' W 039°56'0 0.0 999.7
2016-Dec-03 01:00N 38°12' W 039°56'2 2.0 1002.3
2016-Dec-03 00:00N 38°13' W 039°59'0 0.0 1003.2
2016-Dec-02 23:00N 38°13' W 039°59'1 0.9 1004.4
2016-Dec-02 22:00N 38°13' W 040°00'1 0.8 1004.5
2016-Dec-02 21:00N 38°13' W 040°01'1 1.4 1004.8
2016-Dec-02 20:00N 38°13' W 040°02'0 0.5 1005.0
2016-Dec-02 19:00N 38°13' W 040°03'2 2.2 1005.2
2016-Dec-02 18:00N 38°14' W 040°05'2 2.2 1005.1
2016-Dec-02 17:00N 38°16' W 040°08'0 0.0 1004.9
2016-Dec-02 16:00N 38°16' W 040°08'0 0.0 1005.1
2016-Dec-02 15:00N 38°16' W 040°08'4 2.1 1005.7
2016-Dec-02 13:00N 38°17' W 040°13'5 4.9 1005.8
2016-Dec-02 12:00N 38°21' W 040°17'0 0.0 1006.5
2016-Dec-02 09:00N 38°21' W 040°17'2 1.9 1004.3
2016-Dec-02 08:00N 38°22' W 040°19'1313.4 1003.4
2016-Dec-02 07:00N 38°32' W 040°31'0 0.0 1003.1
2016-Dec-02 06:00N 38°32' W 040°31'0 0.0 1003.1
2016-Dec-02 01:00N 38°32' W 040°31'0 0.0 1002.1
2016-Dec-01 22:00N 38°32' W 040°31'43 4.8 1001.5
2016-Dec-01 13:00N 38°59' W 041°14'0 0.0 1002.3
2016-Nov-29 20:00N 38°59' W 041°14'11 1.1 1011.1
2016-Nov-29 10:00N 38°50' W 041°22'8 1.9 1016.2
2016-Nov-29 06:00N 38°44' W 041°29'8 7.8 1017.5
2016-Nov-29 05:00N 38°50' W 041°22'7 0.8 1017.8
2016-Nov-28 20:00N 38°44' W 041°29'1 1.4 1021.2
2016-Nov-28 19:00N 38°44' W 041°31'2 1.8 1021.2
2016-Nov-28 18:00N 38°43' W 041°32'0 0.0 1021.2
2016-Nov-28 17:00N 38°43' W 041°32'0 0.0 1020.9
2016-Nov-28 16:00N 38°43' W 041°32'2 1.8 1021.7
2016-Nov-28 15:00N 38°42' W 041°34'1 1.1 1021.7
2016-Nov-28 14:00N 38°41' W 041°35'2 0.8 1022.0
2016-Nov-28 12:00N 38°40' W 041°37'0 0.0 1023.1
2016-Nov-28 11:00N 38°40' W 041°37'1 0.9 1022.9
2016-Nov-28 10:00N 38°40' W 041°38'1 0.9 1023.1
2016-Nov-28 09:00N 38°40' W 041°39'1 1.2 1023.2
2016-Nov-28 08:00N 38°39' W 041°39'0 0.0 1023.0
2016-Nov-28 07:00N 38°39' W 041°39'0 0.5 1022.9
2016-Nov-28 06:00N 38°39' W 041°40'2 2.0 1023.2
2016-Nov-28 05:00N 38°40' W 041°42'0 0.0 1023.6
2016-Nov-28 01:00N 38°40' W 041°42'0 0.0 1024.0
2016-Nov-28 00:00N 38°40' W 041°42'1 0.9 1024.1
2016-Nov-27 23:00N 38°40' W 041°43'0 0.5 1024.0
2016-Nov-27 22:00N 38°40' W 041°44'1 0.8 1024.2
2016-Nov-27 21:00N 38°40' W 041°43'0 0.0 1023.6
2016-Nov-27 20:00N 38°40' W 041°43'1 1.1 1022.9
2016-Nov-27 19:00N 38°40' W 041°44'1 1.1 1022.7
2016-Nov-27 18:00N 38°40' W 041°43'0 0.0 1023.0
2016-Nov-27 17:00N 38°40' W 041°43'2 1.9 1022.2
2016-Nov-27 16:00N 38°42' W 041°43'0 0.2 1022.7
2016-Nov-27 13:00N 38°42' W 041°43'1 1.1 1023.2
2016-Nov-27 12:00N 38°43' W 041°44'0 0.0 1023.3
2016-Nov-27 09:00N 38°43' W 041°44'1 0.8 1021.3
2016-Nov-27 08:00N 38°43' W 041°45'1 0.8 1021.2
2016-Nov-27 07:00N 38°44' W 041°46'0 0.0 1020.9
2016-Nov-27 06:00N 38°44' W 041°46'2 2.4 1020.7
2016-Nov-27 05:00N 38°44' W 041°49'2 2.4 1020.4
2016-Nov-27 04:00N 38°44' W 041°46'3 0.8 1020.1
2016-Nov-27 00:00N 38°44' W 041°50'0 0.2 1020.1
2016-Nov-26 21:00N 38°44' W 041°49'1 0.9 1019.6
2016-Nov-26 20:00N 38°44' W 041°50'0 0.5 1018.9
2016-Nov-26 19:00N 38°44' W 041°50'2 1.5 1018.5
2016-Nov-26 18:00N 38°45' W 041°51'1 0.6 1018.4
2016-Nov-26 17:00N 38°44' W 041°51'0 0.0 1017.7
2016-Nov-26 16:00N 38°44' W 041°51'4 1.2 1018.2
2016-Nov-26 13:00N 38°47' W 041°55'3 2.8 1019.5
2016-Nov-26 12:00N 38°47' W 041°58'0 0.0 1019.7
2016-Nov-26 11:00N 38°47' W 041°58'3 1.4 1019.5
2016-Nov-26 09:00N 38°47' W 042°02'0 0.0 1017.9
2016-Nov-26 08:00N 38°47' W 042°02'1 1.4 1017.6
2016-Nov-26 07:00N 38°47' W 042°04'0 0.0 1017.5
2016-Nov-26 06:00N 38°47' W 042°04'4 4.2 1017.4
2016-Nov-26 05:00N 38°47' W 042°09'1 0.3 1017.7
2016-Nov-26 01:00N 38°48' W 042°10'1 1.1 1017.5
2016-Nov-26 00:00N 38°49' W 042°11'1 1.3 1017.4
2016-Nov-25 23:00N 38°50' W 042°12'0 0.0 1016.9
2016-Nov-25 22:00N 38°50' W 042°12'2 2.2 1016.6
2016-Nov-25 21:00N 38°51' W 042°14'0 0.0 1015.9
2016-Nov-25 20:00N 38°51' W 042°14'5 4.9 1015.6
2016-Nov-25 19:00N 38°55' W 042°19'0 0.0 1015.2
2016-Nov-25 18:00N 38°55' W 042°19'7 6.6 1014.1
2016-Nov-25 17:00N 39°01' W 042°22'7 6.6 1013.8
2016-Nov-25 16:00N 38°55' W 042°19'10 3.5 1013.4
2016-Nov-25 13:00N 39°04' W 042°25'0 0.5 1014.0
2016-Nov-25 12:00N 39°04' W 042°26'3 2.6 1013.6
2016-Nov-25 11:00N 39°06' W 042°27'2 1.5 1012.8
2016-Nov-25 10:00N 39°07' W 042°28'3 0.9 1012.4
2016-Nov-25 07:00N 39°10' W 042°30'3 3.3 1011.5
2016-Nov-25 06:00N 39°13' W 042°32'9 8.6 1011.4
2016-Nov-25 05:00N 39°20' W 042°38'1 0.1 1011.2
2016-Nov-25 00:00N 39°20' W 042°38'1 0.9 1009.5
2016-Nov-24 23:00N 39°20' W 042°39'2 2.4 1009.2
2016-Nov-24 22:00N 39°21' W 042°42'0 0.0 1009.2
2016-Nov-24 21:00N 39°21' W 042°42'1 1.1 1009.2
2016-Nov-24 20:00N 39°20' W 042°43'1 1.3 1009.3
2016-Nov-24 19:00N 39°19' W 042°44'0 0.0 1008.4
2016-Nov-24 18:00N 39°19' W 042°44'1 1.3 1009.8
2016-Nov-24 17:00N 39°18' W 042°44'0 0.0 1010.5
2016-Nov-24 16:00N 39°18' W 042°44'0 0.0 1011.9
2016-Nov-24 15:00N 39°18' W 042°44'1 0.6 1012.4
2016-Nov-24 14:00N 39°17' W 042°44'1 0.6 1013.3
2016-Nov-24 12:00N 39°16' W 042°44'1 0.8 1014.1
2016-Nov-24 11:00N 39°16' W 042°43'2 1.5 1014.5
2016-Nov-24 10:00N 39°15' W 042°45'1 0.8 1014.5
2016-Nov-24 09:00N 39°14' W 042°44'1 0.3 1014.9
2016-Nov-24 07:00N 39°14' W 042°44'1 0.8 1015.5
2016-Nov-24 06:00N 39°13' W 042°45'2 2.4 1015.8
2016-Nov-24 05:00N 39°13' W 042°48'6 1.2 1016.4
2016-Nov-24 00:00N 39°07' W 042°44'1 0.6 1018.4
2016-Nov-23 23:00N 39°07' W 042°44'0 0.0 1018.4
2016-Nov-23 22:00N 39°07' W 042°44'1 1.1 1019.0
2016-Nov-23 21:00N 39°06' W 042°43'1 0.6 1019.3
2016-Nov-23 20:00N 39°05' W 042°43'0 0.0 1019.4
2016-Nov-23 19:00N 39°05' W 042°43'1 1.1 1019.0
2016-Nov-23 18:00N 39°05' W 042°42'1 1.3 1019.6
2016-Nov-23 17:00N 39°04' W 042°41'0 0.0 1020.0
2016-Nov-23 16:00N 39°04' W 042°41'0 0.0 1020.1
2016-Nov-23 15:00N 39°04' W 042°41'3 3.3 1020.5
2016-Nov-23 14:00N 39°02' W 042°38'1 0.3 1021.0
2016-Nov-23 12:00N 39°02' W 042°38'0 0.5 1021.6
2016-Nov-23 11:00N 39°02' W 042°38'2 2.0 1021.6
2016-Nov-23 10:00N 39°01' W 042°37'1 1.1 1021.6
2016-Nov-23 09:00N 39°00' W 042°36'0 0.0 1021.5
2016-Nov-23 08:00N 39°00' W 042°36'   1021.9

Dump ship's entire track history